sensor_id;sensor_type;location;lat;lon;timestamp;pressure;altitude;pressure_sealevel;temperature
44429;BMP180;30134;47.866;-4.222;2022-12-08T00:01:12;101530.00;;;21.40
44429;BMP180;30134;47.866;-4.222;2022-12-08T00:03:38;101539.00;;;21.40
44429;BMP180;30134;47.866;-4.222;2022-12-08T00:06:26;101538.00;;;21.40
44429;BMP180;30134;47.866;-4.222;2022-12-08T00:09:24;101531.00;;;21.40
44429;BMP180;30134;47.866;-4.222;2022-12-08T00:12:01;101521.00;;;21.40
44429;BMP180;30134;47.866;-4.222;2022-12-08T00:14:31;101518.00;;;21.40
44429;BMP180;30134;47.866;-4.222;2022-12-08T00:16:57;101526.00;;;21.40
44429;BMP180;30134;47.866;-4.222;2022-12-08T00:19:24;101517.00;;;21.40
44429;BMP180;30134;47.866;-4.222;2022-12-08T00:21:50;101514.00;;;21.40
44429;BMP180;30134;47.866;-4.222;2022-12-08T00:24:17;101500.00;;;21.40
44429;BMP180;30134;47.866;-4.222;2022-12-08T00:26:43;101496.00;;;21.40
44429;BMP180;30134;47.866;-4.222;2022-12-08T00:29:09;101497.00;;;21.40
44429;BMP180;30134;47.866;-4.222;2022-12-08T00:31:35;101500.00;;;21.40
44429;BMP180;30134;47.866;-4.222;2022-12-08T00:34:01;101491.00;;;21.40
44429;BMP180;30134;47.866;-4.222;2022-12-08T00:36:27;101493.00;;;21.40
44429;BMP180;30134;47.866;-4.222;2022-12-08T00:38:53;101496.00;;;21.40
44429;BMP180;30134;47.866;-4.222;2022-12-08T00:41:21;101495.00;;;21.40
44429;BMP180;30134;47.866;-4.222;2022-12-08T00:44:06;101478.00;;;21.40
44429;BMP180;30134;47.866;-4.222;2022-12-08T00:46:33;101476.00;;;21.40
44429;BMP180;30134;47.866;-4.222;2022-12-08T00:48:58;101471.00;;;21.40
44429;BMP180;30134;47.866;-4.222;2022-12-08T00:51:24;101464.00;;;21.40
44429;BMP180;30134;47.866;-4.222;2022-12-08T00:53:53;101461.00;;;21.40
44429;BMP180;30134;47.866;-4.222;2022-12-08T00:56:19;101451.00;;;21.40
44429;BMP180;30134;47.866;-4.222;2022-12-08T00:58:45;101457.00;;;21.40
44429;BMP180;30134;47.866;-4.222;2022-12-08T01:01:12;101451.00;;;21.40
44429;BMP180;30134;47.866;-4.222;2022-12-08T01:03:38;101449.00;;;21.40
44429;BMP180;30134;47.866;-4.222;2022-12-08T01:06:05;101447.00;;;21.40
44429;BMP180;30134;47.866;-4.222;2022-12-08T01:08:31;101440.00;;;21.40
44429;BMP180;30134;47.866;-4.222;2022-12-08T01:11:09;101441.00;;;21.40
44429;BMP180;30134;47.866;-4.222;2022-12-08T01:13:34;101438.00;;;21.40
44429;BMP180;30134;47.866;-4.222;2022-12-08T01:16:00;101432.00;;;21.40
44429;BMP180;30134;47.866;-4.222;2022-12-08T01:18:26;101438.00;;;21.40
44429;BMP180;30134;47.866;-4.222;2022-12-08T01:20:52;101427.00;;;21.40
44429;BMP180;30134;47.866;-4.222;2022-12-08T01:23:18;101429.00;;;21.40
44429;BMP180;30134;47.866;-4.222;2022-12-08T01:25:44;101422.00;;;21.40
44429;BMP180;30134;47.866;-4.222;2022-12-08T01:28:10;101424.00;;;21.40
44429;BMP180;30134;47.866;-4.222;2022-12-08T01:30:39;101418.00;;;21.40
44429;BMP180;30134;47.866;-4.222;2022-12-08T01:33:05;101417.00;;;21.40
44429;BMP180;30134;47.866;-4.222;2022-12-08T01:35:32;101426.00;;;21.40
44429;BMP180;30134;47.866;-4.222;2022-12-08T01:37:58;101418.00;;;21.40
44429;BMP180;30134;47.866;-4.222;2022-12-08T01:40:24;101416.00;;;21.40
44429;BMP180;30134;47.866;-4.222;2022-12-08T01:42:50;101420.00;;;21.30
44429;BMP180;30134;47.866;-4.222;2022-12-08T01:45:28;101405.00;;;21.40
44429;BMP180;30134;47.866;-4.222;2022-12-08T01:47:56;101411.00;;;21.40
44429;BMP180;30134;47.866;-4.222;2022-12-08T01:50:23;101402.00;;;21.40
44429;BMP180;30134;47.866;-4.222;2022-12-08T01:52:56;101400.00;;;21.30
44429;BMP180;30134;47.866;-4.222;2022-12-08T01:55:40;101395.00;;;21.30
44429;BMP180;30134;47.866;-4.222;2022-12-08T01:58:39;101399.00;;;21.30
44429;BMP180;30134;47.866;-4.222;2022-12-08T02:01:04;101402.00;;;21.30
44429;BMP180;30134;47.866;-4.222;2022-12-08T02:03:39;101400.00;;;21.30
44429;BMP180;30134;47.866;-4.222;2022-12-08T02:06:07;101404.00;;;21.30
44429;BMP180;30134;47.866;-4.222;2022-12-08T02:08:33;101396.00;;;21.30
44429;BMP180;30134;47.866;-4.222;2022-12-08T02:11:00;101397.00;;;21.30
44429;BMP180;30134;47.866;-4.222;2022-12-08T02:13:26;101392.00;;;21.30
44429;BMP180;30134;47.866;-4.222;2022-12-08T02:30:44;101372.00;;;21.30
44429;BMP180;30134;47.866;-4.222;2022-12-08T02:39:02;101377.00;;;21.30
44429;BMP180;30134;47.866;-4.222;2022-12-08T02:41:46;101378.00;;;21.30
44429;BMP180;30134;47.866;-4.222;2022-12-08T02:44:23;101378.00;;;21.30
44429;BMP180;30134;47.866;-4.222;2022-12-08T02:46:57;101376.00;;;21.30
44429;BMP180;30134;47.866;-4.222;2022-12-08T02:49:28;101375.00;;;21.30
44429;BMP180;30134;47.866;-4.222;2022-12-08T02:52:52;101367.00;;;21.30
44429;BMP180;30134;47.866;-4.222;2022-12-08T02:55:06;101360.00;;;21.30
44429;BMP180;30134;47.866;-4.222;2022-12-08T03:00:24;101360.00;;;21.30
44429;BMP180;30134;47.866;-4.222;2022-12-08T03:08:41;101346.00;;;21.30
44429;BMP180;30134;47.866;-4.222;2022-12-08T03:11:14;101345.00;;;21.30
44429;BMP180;30134;47.866;-4.222;2022-12-08T03:13:47;101339.00;;;21.30
44429;BMP180;30134;47.866;-4.222;2022-12-08T03:16:16;101339.00;;;21.30
44429;BMP180;30134;47.866;-4.222;2022-12-08T03:18:53;101335.00;;;21.30
44429;BMP180;30134;47.866;-4.222;2022-12-08T03:21:21;101330.00;;;21.30
44429;BMP180;30134;47.866;-4.222;2022-12-08T03:23:49;101332.00;;;21.30
44429;BMP180;30134;47.866;-4.222;2022-12-08T03:26:29;101317.00;;;21.30
44429;BMP180;30134;47.866;-4.222;2022-12-08T03:28:56;101320.00;;;21.30
44429;BMP180;30134;47.866;-4.222;2022-12-08T03:31:23;101316.00;;;21.30
44429;BMP180;30134;47.866;-4.222;2022-12-08T03:33:50;101309.00;;;21.30
44429;BMP180;30134;47.866;-4.222;2022-12-08T03:36:19;101308.00;;;21.30
44429;BMP180;30134;47.866;-4.222;2022-12-08T03:38:45;101302.00;;;21.30
44429;BMP180;30134;47.866;-4.222;2022-12-08T03:41:14;101306.00;;;21.30
44429;BMP180;30134;47.866;-4.222;2022-12-08T03:43:50;101306.00;;;21.30
44429;BMP180;30134;47.866;-4.222;2022-12-08T03:46:17;101298.00;;;21.30
44429;BMP180;30134;47.866;-4.222;2022-12-08T03:48:43;101299.00;;;21.30
44429;BMP180;30134;47.866;-4.222;2022-12-08T03:51:09;101305.00;;;21.30
44429;BMP180;30134;47.866;-4.222;2022-12-08T03:53:36;101306.00;;;21.30
44429;BMP180;30134;47.866;-4.222;2022-12-08T03:56:27;101305.00;;;21.30
44429;BMP180;30134;47.866;-4.222;2022-12-08T03:58:52;101303.00;;;21.30
44429;BMP180;30134;47.866;-4.222;2022-12-08T04:01:19;101297.00;;;21.30
44429;BMP180;30134;47.866;-4.222;2022-12-08T04:03:45;101304.00;;;21.30
44429;BMP180;30134;47.866;-4.222;2022-12-08T04:06:11;101286.00;;;21.30
44429;BMP180;30134;47.866;-4.222;2022-12-08T04:08:37;101284.00;;;21.30
44429;BMP180;30134;47.866;-4.222;2022-12-08T04:11:03;101281.00;;;21.30
44429;BMP180;30134;47.866;-4.222;2022-12-08T04:13:31;101272.00;;;21.30
44429;BMP180;30134;47.866;-4.222;2022-12-08T04:15:57;101278.00;;;21.30
44429;BMP180;30134;47.866;-4.222;2022-12-08T04:18:23;101267.00;;;21.30
44429;BMP180;30134;47.866;-4.222;2022-12-08T04:20:49;101264.00;;;21.30
44429;BMP180;30134;47.866;-4.222;2022-12-08T04:23:14;101261.00;;;21.30
44429;BMP180;30134;47.866;-4.222;2022-12-08T04:25:40;101260.00;;;21.30
44429;BMP180;30134;47.866;-4.222;2022-12-08T04:28:06;101244.00;;;21.30
44429;BMP180;30134;47.866;-4.222;2022-12-08T04:30:32;101245.00;;;21.30
44429;BMP180;30134;47.866;-4.222;2022-12-08T04:32:58;101245.00;;;21.30
44429;BMP180;30134;47.866;-4.222;2022-12-08T04:35:24;101242.00;;;21.30
44429;BMP180;30134;47.866;-4.222;2022-12-08T04:37:50;101240.00;;;21.30
44429;BMP180;30134;47.866;-4.222;2022-12-08T04:40:16;101230.00;;;21.30
44429;BMP180;30134;47.866;-4.222;2022-12-08T04:42:43;101228.00;;;21.30
44429;BMP180;30134;47.866;-4.222;2022-12-08T04:45:09;101228.00;;;21.30
44429;BMP180;30134;47.866;-4.222;2022-12-08T04:47:35;101229.00;;;21.30
44429;BMP180;30134;47.866;-4.222;2022-12-08T04:50:01;101220.00;;;21.30
44429;BMP180;30134;47.866;-4.222;2022-12-08T04:52:28;101220.00;;;21.30
44429;BMP180;30134;47.866;-4.222;2022-12-08T04:54:53;101209.00;;;21.30
44429;BMP180;30134;47.866;-4.222;2022-12-08T04:57:19;101202.00;;;21.30
44429;BMP180;30134;47.866;-4.222;2022-12-08T04:59:45;101206.00;;;21.30
44429;BMP180;30134;47.866;-4.222;2022-12-08T05:02:11;101196.00;;;21.30
44429;BMP180;30134;47.866;-4.222;2022-12-08T05:04:37;101196.00;;;21.30
44429;BMP180;30134;47.866;-4.222;2022-12-08T05:07:03;101192.00;;;21.30
44429;BMP180;30134;47.866;-4.222;2022-12-08T05:09:29;101190.00;;;21.30
44429;BMP180;30134;47.866;-4.222;2022-12-08T05:11:55;101189.00;;;21.30
44429;BMP180;30134;47.866;-4.222;2022-12-08T05:14:21;101187.00;;;21.30
44429;BMP180;30134;47.866;-4.222;2022-12-08T05:16:47;101187.00;;;21.30
44429;BMP180;30134;47.866;-4.222;2022-12-08T05:19:14;101182.00;;;21.30
44429;BMP180;30134;47.866;-4.222;2022-12-08T05:21:40;101186.00;;;21.30
44429;BMP180;30134;47.866;-4.222;2022-12-08T05:24:06;101184.00;;;21.30
44429;BMP180;30134;47.866;-4.222;2022-12-08T05:26:32;101185.00;;;21.30
44429;BMP180;30134;47.866;-4.222;2022-12-08T05:28:58;101184.00;;;21.30
44429;BMP180;30134;47.866;-4.222;2022-12-08T05:31:24;101187.00;;;21.30
44429;BMP180;30134;47.866;-4.222;2022-12-08T05:33:50;101187.00;;;21.30
44429;BMP180;30134;47.866;-4.222;2022-12-08T05:36:16;101182.00;;;21.30
44429;BMP180;30134;47.866;-4.222;2022-12-08T05:38:44;101183.00;;;21.30
44429;BMP180;30134;47.866;-4.222;2022-12-08T05:41:13;101178.00;;;21.30
44429;BMP180;30134;47.866;-4.222;2022-12-08T05:43:39;101188.00;;;21.30
44429;BMP180;30134;47.866;-4.222;2022-12-08T05:46:06;101179.00;;;21.30
44429;BMP180;30134;47.866;-4.222;2022-12-08T05:48:32;101188.00;;;21.30
44429;BMP180;30134;47.866;-4.222;2022-12-08T05:50:58;101185.00;;;21.30
44429;BMP180;30134;47.866;-4.222;2022-12-08T05:53:25;101173.00;;;21.30
44429;BMP180;30134;47.866;-4.222;2022-12-08T05:55:51;101168.00;;;21.30
44429;BMP180;30134;47.866;-4.222;2022-12-08T05:58:19;101173.00;;;21.30
44429;BMP180;30134;47.866;-4.222;2022-12-08T06:00:46;101170.00;;;21.30
44429;BMP180;30134;47.866;-4.222;2022-12-08T06:03:13;101159.00;;;21.30
44429;BMP180;30134;47.866;-4.222;2022-12-08T06:05:40;101163.00;;;21.30
44429;BMP180;30134;47.866;-4.222;2022-12-08T06:08:07;101160.00;;;21.30
44429;BMP180;30134;47.866;-4.222;2022-12-08T06:10:33;101154.00;;;21.30
44429;BMP180;30134;47.866;-4.222;2022-12-08T06:12:59;101165.00;;;21.30
44429;BMP180;30134;47.866;-4.222;2022-12-08T06:15:25;101165.00;;;21.30
44429;BMP180;30134;47.866;-4.222;2022-12-08T06:17:51;101169.00;;;21.30
44429;BMP180;30134;47.866;-4.222;2022-12-08T06:20:17;101157.00;;;21.30
44429;BMP180;30134;47.866;-4.222;2022-12-08T06:22:43;101152.00;;;21.30
44429;BMP180;30134;47.866;-4.222;2022-12-08T06:25:09;101159.00;;;21.30
44429;BMP180;30134;47.866;-4.222;2022-12-08T06:27:35;101146.00;;;21.30
44429;BMP180;30134;47.866;-4.222;2022-12-08T06:30:00;101148.00;;;21.30
44429;BMP180;30134;47.866;-4.222;2022-12-08T06:32:26;101145.00;;;21.30
44429;BMP180;30134;47.866;-4.222;2022-12-08T06:34:52;101142.00;;;21.30
44429;BMP180;30134;47.866;-4.222;2022-12-08T06:37:18;101145.00;;;21.30
44429;BMP180;30134;47.866;-4.222;2022-12-08T06:39:50;101134.00;;;21.30
44429;BMP180;30134;47.866;-4.222;2022-12-08T06:42:16;101133.00;;;21.30
44429;BMP180;30134;47.866;-4.222;2022-12-08T06:45:01;101137.00;;;21.30
44429;BMP180;30134;47.866;-4.222;2022-12-08T06:47:26;101136.00;;;21.30
44429;BMP180;30134;47.866;-4.222;2022-12-08T06:49:52;101138.00;;;21.30
44429;BMP180;30134;47.866;-4.222;2022-12-08T06:52:18;101133.00;;;21.30
44429;BMP180;30134;47.866;-4.222;2022-12-08T06:54:44;101128.00;;;21.30
44429;BMP180;30134;47.866;-4.222;2022-12-08T06:57:10;101136.00;;;21.30
44429;BMP180;30134;47.866;-4.222;2022-12-08T06:59:37;101131.00;;;21.30
44429;BMP180;30134;47.866;-4.222;2022-12-08T07:02:03;101138.00;;;21.30
44429;BMP180;30134;47.866;-4.222;2022-12-08T07:04:29;101135.00;;;21.30
44429;BMP180;30134;47.866;-4.222;2022-12-08T07:06:55;101133.00;;;21.30
44429;BMP180;30134;47.866;-4.222;2022-12-08T07:09:21;101135.00;;;21.30
44429;BMP180;30134;47.866;-4.222;2022-12-08T07:11:47;101125.00;;;21.30
44429;BMP180;30134;47.866;-4.222;2022-12-08T07:14:13;101134.00;;;21.30
44429;BMP180;30134;47.866;-4.222;2022-12-08T07:16:39;101135.00;;;21.30
44429;BMP180;30134;47.866;-4.222;2022-12-08T07:19:05;101134.00;;;21.30
44429;BMP180;30134;47.866;-4.222;2022-12-08T07:21:31;101122.00;;;21.30
44429;BMP180;30134;47.866;-4.222;2022-12-08T07:23:58;101124.00;;;21.30
44429;BMP180;30134;47.866;-4.222;2022-12-08T07:26:24;101123.00;;;21.30
44429;BMP180;30134;47.866;-4.222;2022-12-08T07:28:51;101119.00;;;21.30
44429;BMP180;30134;47.866;-4.222;2022-12-08T07:31:22;101121.00;;;21.30
44429;BMP180;30134;47.866;-4.222;2022-12-08T07:33:48;101107.00;;;21.30
44429;BMP180;30134;47.866;-4.222;2022-12-08T07:36:15;101113.00;;;21.30
44429;BMP180;30134;47.866;-4.222;2022-12-08T07:38:41;101112.00;;;21.30
44429;BMP180;30134;47.866;-4.222;2022-12-08T07:41:22;101115.00;;;21.30
44429;BMP180;30134;47.866;-4.222;2022-12-08T07:43:48;101105.00;;;21.30
44429;BMP180;30134;47.866;-4.222;2022-12-08T07:46:17;101094.00;;;21.30
44429;BMP180;30134;47.866;-4.222;2022-12-08T07:48:44;101096.00;;;21.30
44429;BMP180;30134;47.866;-4.222;2022-12-08T07:51:11;101079.00;;;21.30
44429;BMP180;30134;47.866;-4.222;2022-12-08T07:53:39;101086.00;;;21.30
44429;BMP180;30134;47.866;-4.222;2022-12-08T07:56:06;101074.00;;;21.30
44429;BMP180;30134;47.866;-4.222;2022-12-08T07:58:32;101075.00;;;21.30
44429;BMP180;30134;47.866;-4.222;2022-12-08T08:00:59;101071.00;;;21.30
44429;BMP180;30134;47.866;-4.222;2022-12-08T08:03:24;101064.00;;;21.30
44429;BMP180;30134;47.866;-4.222;2022-12-08T08:05:50;101069.00;;;21.30
44429;BMP180;30134;47.866;-4.222;2022-12-08T08:08:16;101062.00;;;21.30
44429;BMP180;30134;47.866;-4.222;2022-12-08T08:10:43;101070.00;;;21.30
44429;BMP180;30134;47.866;-4.222;2022-12-08T08:13:09;101060.00;;;21.30
44429;BMP180;30134;47.866;-4.222;2022-12-08T08:15:35;101068.00;;;21.30
44429;BMP180;30134;47.866;-4.222;2022-12-08T08:18:01;101066.00;;;21.30
44429;BMP180;30134;47.866;-4.222;2022-12-08T08:20:27;101067.00;;;21.30
44429;BMP180;30134;47.866;-4.222;2022-12-08T08:22:52;101067.00;;;21.30
44429;BMP180;30134;47.866;-4.222;2022-12-08T08:25:19;101069.00;;;21.30
44429;BMP180;30134;47.866;-4.222;2022-12-08T08:27:47;101070.00;;;21.30
44429;BMP180;30134;47.866;-4.222;2022-12-08T08:30:14;101074.00;;;21.30
44429;BMP180;30134;47.866;-4.222;2022-12-08T08:32:40;101062.00;;;21.30
44429;BMP180;30134;47.866;-4.222;2022-12-08T08:35:07;101055.00;;;21.30
44429;BMP180;30134;47.866;-4.222;2022-12-08T08:37:33;101056.00;;;21.30
44429;BMP180;30134;47.866;-4.222;2022-12-08T08:39:59;101051.00;;;21.30
44429;BMP180;30134;47.866;-4.222;2022-12-08T08:42:25;101055.00;;;21.30
44429;BMP180;30134;47.866;-4.222;2022-12-08T08:44:51;101046.00;;;21.30
44429;BMP180;30134;47.866;-4.222;2022-12-08T08:47:17;101050.00;;;21.30
44429;BMP180;30134;47.866;-4.222;2022-12-08T08:49:42;101047.00;;;21.30
44429;BMP180;30134;47.866;-4.222;2022-12-08T08:52:09;101035.00;;;21.30
44429;BMP180;30134;47.866;-4.222;2022-12-08T08:54:35;101042.00;;;21.30
44429;BMP180;30134;47.866;-4.222;2022-12-08T08:57:01;101040.00;;;21.30
44429;BMP180;30134;47.866;-4.222;2022-12-08T08:59:27;101033.00;;;21.30
44429;BMP180;30134;47.866;-4.222;2022-12-08T09:01:54;101034.00;;;21.30
44429;BMP180;30134;47.866;-4.222;2022-12-08T09:04:21;101037.00;;;21.30
44429;BMP180;30134;47.866;-4.222;2022-12-08T09:06:47;101027.00;;;21.30
44429;BMP180;30134;47.866;-4.222;2022-12-08T09:09:14;101032.00;;;21.30
44429;BMP180;30134;47.866;-4.222;2022-12-08T09:11:41;101035.00;;;21.30
44429;BMP180;30134;47.866;-4.222;2022-12-08T09:14:12;101039.00;;;21.30
44429;BMP180;30134;47.866;-4.222;2022-12-08T09:16:40;101038.00;;;21.30
44429;BMP180;30134;47.866;-4.222;2022-12-08T09:19:09;101036.00;;;21.30
44429;BMP180;30134;47.866;-4.222;2022-12-08T09:21:35;101031.00;;;21.30
44429;BMP180;30134;47.866;-4.222;2022-12-08T09:24:00;101026.00;;;21.30
44429;BMP180;30134;47.866;-4.222;2022-12-08T09:26:27;101024.00;;;21.30
44429;BMP180;30134;47.866;-4.222;2022-12-08T09:28:53;101017.00;;;21.30
44429;BMP180;30134;47.866;-4.222;2022-12-08T09:31:21;101019.00;;;21.30
44429;BMP180;30134;47.866;-4.222;2022-12-08T09:33:48;101019.00;;;21.30
44429;BMP180;30134;47.866;-4.222;2022-12-08T09:36:18;101021.00;;;21.30
44429;BMP180;30134;47.866;-4.222;2022-12-08T09:38:47;101016.00;;;21.30
44429;BMP180;30134;47.866;-4.222;2022-12-08T09:46:50;101015.00;;;21.30
44429;BMP180;30134;47.866;-4.222;2022-12-08T09:49:19;101010.00;;;21.30
44429;BMP180;30134;47.866;-4.222;2022-12-08T09:51:46;101007.00;;;21.30
44429;BMP180;30134;47.866;-4.222;2022-12-08T09:54:22;101016.00;;;21.30
44429;BMP180;30134;47.866;-4.222;2022-12-08T09:56:53;101017.00;;;21.40
44429;BMP180;30134;47.866;-4.222;2022-12-08T09:59:29;101018.00;;;21.30
44429;BMP180;30134;47.866;-4.222;2022-12-08T10:01:56;101020.00;;;21.30
44429;BMP180;30134;47.866;-4.222;2022-12-08T10:04:24;101016.00;;;21.30
44429;BMP180;30134;47.866;-4.222;2022-12-08T10:07:11;101024.00;;;21.40
44429;BMP180;30134;47.866;-4.222;2022-12-08T10:17:46;101014.00;;;21.40
44429;BMP180;30134;47.866;-4.222;2022-12-08T10:20:15;101009.00;;;21.30
44429;BMP180;30134;47.866;-4.222;2022-12-08T10:22:41;101009.00;;;21.40
44429;BMP180;30134;47.866;-4.222;2022-12-08T10:25:23;101007.00;;;21.40
44429;BMP180;30134;47.866;-4.222;2022-12-08T10:27:53;101003.00;;;21.40
44429;BMP180;30134;47.866;-4.222;2022-12-08T10:30:20;101008.00;;;21.30
44429;BMP180;30134;47.866;-4.222;2022-12-08T10:32:50;101007.00;;;21.30
44429;BMP180;30134;47.866;-4.222;2022-12-08T10:35:18;101000.00;;;21.30
44429;BMP180;30134;47.866;-4.222;2022-12-08T10:37:58;100997.00;;;21.30
44429;BMP180;30134;47.866;-4.222;2022-12-08T10:40:27;100988.00;;;21.30
44429;BMP180;30134;47.866;-4.222;2022-12-08T10:42:55;100985.00;;;21.30
44429;BMP180;30134;47.866;-4.222;2022-12-08T10:45:29;100981.00;;;21.40
44429;BMP180;30134;47.866;-4.222;2022-12-08T10:48:15;100985.00;;;21.40
44429;BMP180;30134;47.866;-4.222;2022-12-08T10:50:44;100979.00;;;21.30
44429;BMP180;30134;47.866;-4.222;2022-12-08T10:58:33;100966.00;;;21.40
44429;BMP180;30134;47.866;-4.222;2022-12-08T11:01:13;100965.00;;;21.40
44429;BMP180;30134;47.866;-4.222;2022-12-08T11:06:22;100955.00;;;21.40
44429;BMP180;30134;47.866;-4.222;2022-12-08T11:09:01;100959.00;;;21.40
44429;BMP180;30134;47.866;-4.222;2022-12-08T11:14:07;100954.00;;;21.40
44429;BMP180;30134;47.866;-4.222;2022-12-08T11:16:32;100960.00;;;21.40
44429;BMP180;30134;47.866;-4.222;2022-12-08T11:19:02;100955.00;;;21.40
44429;BMP180;30134;47.866;-4.222;2022-12-08T11:21:35;100954.00;;;21.40
44429;BMP180;30134;47.866;-4.222;2022-12-08T11:24:22;100947.00;;;21.40
44429;BMP180;30134;47.866;-4.222;2022-12-08T11:27:09;100943.00;;;21.40
44429;BMP180;30134;47.866;-4.222;2022-12-08T11:29:35;100943.00;;;21.40
44429;BMP180;30134;47.866;-4.222;2022-12-08T11:32:01;100926.00;;;21.40
44429;BMP180;30134;47.866;-4.222;2022-12-08T11:34:40;100928.00;;;21.40
44429;BMP180;30134;47.866;-4.222;2022-12-08T11:37:16;100916.00;;;21.40
44429;BMP180;30134;47.866;-4.222;2022-12-08T11:39:49;100920.00;;;21.40
44429;BMP180;30134;47.866;-4.222;2022-12-08T11:42:17;100925.00;;;21.40
44429;BMP180;30134;47.866;-4.222;2022-12-08T11:44:48;100914.00;;;21.40
44429;BMP180;30134;47.866;-4.222;2022-12-08T11:47:45;100918.00;;;21.40
44429;BMP180;30134;47.866;-4.222;2022-12-08T11:50:27;100918.00;;;21.40
44429;BMP180;30134;47.866;-4.222;2022-12-08T11:52:54;100924.00;;;21.40
44429;BMP180;30134;47.866;-4.222;2022-12-08T11:55:49;100915.00;;;21.40
44429;BMP180;30134;47.866;-4.222;2022-12-08T11:58:25;100912.00;;;21.40
44429;BMP180;30134;47.866;-4.222;2022-12-08T12:00:55;100906.00;;;21.40
44429;BMP180;30134;47.866;-4.222;2022-12-08T12:03:35;100911.00;;;21.40
44429;BMP180;30134;47.866;-4.222;2022-12-08T12:06:31;100907.00;;;21.40
44429;BMP180;30134;47.866;-4.222;2022-12-08T12:11:37;100905.00;;;21.40
44429;BMP180;30134;47.866;-4.222;2022-12-08T12:20:10;100896.00;;;21.40
44429;BMP180;30134;47.866;-4.222;2022-12-08T12:22:38;100894.00;;;21.40
44429;BMP180;30134;47.866;-4.222;2022-12-08T12:25:04;100893.00;;;21.40
44429;BMP180;30134;47.866;-4.222;2022-12-08T12:27:38;100888.00;;;21.40
44429;BMP180;30134;47.866;-4.222;2022-12-08T12:30:12;100889.00;;;21.40
44429;BMP180;30134;47.866;-4.222;2022-12-08T12:32:50;100882.00;;;21.50
44429;BMP180;30134;47.866;-4.222;2022-12-08T12:35:41;100872.00;;;21.40
44429;BMP180;30134;47.866;-4.222;2022-12-08T12:38:34;100870.00;;;21.50
44429;BMP180;30134;47.866;-4.222;2022-12-08T12:41:36;100874.00;;;21.50
44429;BMP180;30134;47.866;-4.222;2022-12-08T12:52:00;100864.00;;;21.50
44429;BMP180;30134;47.866;-4.222;2022-12-08T12:54:26;100862.00;;;21.50
44429;BMP180;30134;47.866;-4.222;2022-12-08T13:07:40;100850.00;;;21.50
44429;BMP180;30134;47.866;-4.222;2022-12-08T13:10:28;100843.00;;;21.50
44429;BMP180;30134;47.866;-4.222;2022-12-08T13:15:46;100844.00;;;21.50
44429;BMP180;30134;47.866;-4.222;2022-12-08T13:20:51;100844.00;;;21.50
44429;BMP180;30134;47.866;-4.222;2022-12-08T13:26:12;100824.00;;;21.50
44429;BMP180;30134;47.866;-4.222;2022-12-08T13:34:20;100816.00;;;21.50
44429;BMP180;30134;47.866;-4.222;2022-12-08T13:39:45;100802.00;;;21.50
44429;BMP180;30134;47.866;-4.222;2022-12-08T13:45:13;100803.00;;;21.50
44429;BMP180;30134;47.866;-4.222;2022-12-08T13:50:45;100802.00;;;21.50
44429;BMP180;30134;47.866;-4.222;2022-12-08T13:53:17;100798.00;;;21.50
44429;BMP180;30134;47.866;-4.222;2022-12-08T13:55:46;100787.00;;;21.50
44429;BMP180;30134;47.866;-4.222;2022-12-08T13:58:36;100787.00;;;21.50
44429;BMP180;30134;47.866;-4.222;2022-12-08T14:01:19;100791.00;;;21.50
44429;BMP180;30134;47.866;-4.222;2022-12-08T14:03:51;100783.00;;;21.50
44429;BMP180;30134;47.866;-4.222;2022-12-08T14:06:21;100783.00;;;21.50
44429;BMP180;30134;47.866;-4.222;2022-12-08T14:08:53;100781.00;;;21.50
44429;BMP180;30134;47.866;-4.222;2022-12-08T14:11:34;100774.00;;;21.50
44429;BMP180;30134;47.866;-4.222;2022-12-08T14:14:10;100768.00;;;21.50
44429;BMP180;30134;47.866;-4.222;2022-12-08T14:16:39;100760.00;;;21.50
44429;BMP180;30134;47.866;-4.222;2022-12-08T14:19:16;100761.00;;;21.50
44429;BMP180;30134;47.866;-4.222;2022-12-08T14:21:47;100757.00;;;21.50
44429;BMP180;30134;47.866;-4.222;2022-12-08T14:24:15;100752.00;;;21.50
44429;BMP180;30134;47.866;-4.222;2022-12-08T14:26:41;100746.00;;;21.50
44429;BMP180;30134;47.866;-4.222;2022-12-08T14:29:07;100757.00;;;21.50
44429;BMP180;30134;47.866;-4.222;2022-12-08T14:31:34;100752.00;;;21.50
44429;BMP180;30134;47.866;-4.222;2022-12-08T14:34:00;100752.00;;;21.50
44429;BMP180;30134;47.866;-4.222;2022-12-08T14:36:26;100742.00;;;21.50
44429;BMP180;30134;47.866;-4.222;2022-12-08T14:38:53;100743.00;;;21.50
44429;BMP180;30134;47.866;-4.222;2022-12-08T14:41:25;100741.00;;;21.50
44429;BMP180;30134;47.866;-4.222;2022-12-08T14:44:01;100740.00;;;21.50
44429;BMP180;30134;47.866;-4.222;2022-12-08T14:46:27;100739.00;;;21.50
44429;BMP180;30134;47.866;-4.222;2022-12-08T14:48:53;100732.00;;;21.50
44429;BMP180;30134;47.866;-4.222;2022-12-08T14:51:30;100738.00;;;21.50
44429;BMP180;30134;47.866;-4.222;2022-12-08T14:54:12;100734.00;;;21.50
44429;BMP180;30134;47.866;-4.222;2022-12-08T14:56:49;100737.00;;;21.50
44429;BMP180;30134;47.866;-4.222;2022-12-08T15:01:53;100736.00;;;21.50
44429;BMP180;30134;47.866;-4.222;2022-12-08T15:04:27;100736.00;;;21.50
44429;BMP180;30134;47.866;-4.222;2022-12-08T15:07:04;100730.00;;;21.50
44429;BMP180;30134;47.866;-4.222;2022-12-08T15:09:35;100731.00;;;21.50
44429;BMP180;30134;47.866;-4.222;2022-12-08T15:12:14;100725.00;;;21.50
44429;BMP180;30134;47.866;-4.222;2022-12-08T15:15:01;100732.00;;;21.50
44429;BMP180;30134;47.866;-4.222;2022-12-08T15:17:41;100728.00;;;21.50
44429;BMP180;30134;47.866;-4.222;2022-12-08T15:20:38;100726.00;;;21.50
44429;BMP180;30134;47.866;-4.222;2022-12-08T15:23:23;100727.00;;;21.50
44429;BMP180;30134;47.866;-4.222;2022-12-08T15:25:50;100720.00;;;21.50
44429;BMP180;30134;47.866;-4.222;2022-12-08T15:28:18;100724.00;;;21.50
44429;BMP180;30134;47.866;-4.222;2022-12-08T15:30:45;100725.00;;;21.50
44429;BMP180;30134;47.866;-4.222;2022-12-08T15:33:11;100725.00;;;21.50
44429;BMP180;30134;47.866;-4.222;2022-12-08T15:35:37;100721.00;;;21.50
44429;BMP180;30134;47.866;-4.222;2022-12-08T15:38:04;100721.00;;;21.50
44429;BMP180;30134;47.866;-4.222;2022-12-08T15:40:30;100720.00;;;21.50
44429;BMP180;30134;47.866;-4.222;2022-12-08T15:42:56;100715.00;;;21.50
44429;BMP180;30134;47.866;-4.222;2022-12-08T15:45:27;100712.00;;;21.50